sensor_id;sensor_type;location;lat;lon;timestamp;P1;durP1;ratioP1;P2;durP2;ratioP2
73898;SDS011;62234;50.892;12.724;2023-07-22T00:02:19;7.53;;;2.40;;
73898;SDS011;62234;50.892;12.724;2023-07-22T00:04:47;12.43;;;3.30;;
73898;SDS011;62234;50.892;12.724;2023-07-22T00:07:13;10.18;;;2.30;;
73898;SDS011;62234;50.892;12.724;2023-07-22T00:09:39;7.97;;;2.67;;
73898;SDS011;62234;50.892;12.724;2023-07-22T00:12:06;9.40;;;2.80;;
73898;SDS011;62234;50.892;12.724;2023-07-22T00:14:32;5.75;;;2.60;;
73898;SDS011;62234;50.892;12.724;2023-07-22T00:16:58;6.90;;;3.15;;
73898;SDS011;62234;50.892;12.724;2023-07-22T00:19:24;4.47;;;2.75;;
73898;SDS011;62234;50.892;12.724;2023-07-22T00:21:50;7.95;;;2.90;;
73898;SDS011;62234;50.892;12.724;2023-07-22T00:24:17;5.70;;;2.45;;
73898;SDS011;62234;50.892;12.724;2023-07-22T00:26:43;8.73;;;2.45;;
73898;SDS011;62234;50.892;12.724;2023-07-22T00:29:09;8.30;;;2.55;;
73898;SDS011;62234;50.892;12.724;2023-07-22T00:31:35;9.15;;;3.15;;
73898;SDS011;62234;50.892;12.724;2023-07-22T00:34:01;10.80;;;2.78;;
73898;SDS011;62234;50.892;12.724;2023-07-22T00:36:27;6.35;;;2.75;;
73898;SDS011;62234;50.892;12.724;2023-07-22T00:38:54;5.45;;;2.80;;
73898;SDS011;62234;50.892;12.724;2023-07-22T00:41:20;9.32;;;2.83;;
73898;SDS011;62234;50.892;12.724;2023-07-22T00:43:46;7.00;;;3.45;;
73898;SDS011;62234;50.892;12.724;2023-07-22T00:46:12;10.82;;;2.72;;
73898;SDS011;62234;50.892;12.724;2023-07-22T00:48:38;8.55;;;2.60;;
73898;SDS011;62234;50.892;12.724;2023-07-22T00:51:04;10.60;;;2.78;;
73898;SDS011;62234;50.892;12.724;2023-07-22T00:53:30;12.48;;;3.28;;
73898;SDS011;62234;50.892;12.724;2023-07-22T00:55:56;8.45;;;2.70;;
73898;SDS011;62234;50.892;12.724;2023-07-22T00:58:22;13.05;;;2.95;;
73898;SDS011;62234;50.892;12.724;2023-07-22T01:00:48;12.98;;;2.60;;
73898;SDS011;62234;50.892;12.724;2023-07-22T01:03:14;6.57;;;3.03;;
73898;SDS011;62234;50.892;12.724;2023-07-22T01:05:40;9.75;;;2.83;;
73898;SDS011;62234;50.892;12.724;2023-07-22T01:08:07;7.38;;;2.70;;
73898;SDS011;62234;50.892;12.724;2023-07-22T01:10:33;6.78;;;2.50;;
73898;SDS011;62234;50.892;12.724;2023-07-22T01:12:59;9.10;;;2.80;;
73898;SDS011;62234;50.892;12.724;2023-07-22T01:15:25;15.60;;;3.25;;
73898;SDS011;62234;50.892;12.724;2023-07-22T01:17:51;3.53;;;2.45;;
73898;SDS011;62234;50.892;12.724;2023-07-22T01:20:17;11.73;;;3.63;;
73898;SDS011;62234;50.892;12.724;2023-07-22T01:22:53;6.05;;;2.65;;
73898;SDS011;62234;50.892;12.724;2023-07-22T01:25:20;8.05;;;2.85;;
73898;SDS011;62234;50.892;12.724;2023-07-22T01:27:50;10.68;;;2.88;;
73898;SDS011;62234;50.892;12.724;2023-07-22T01:30:16;11.93;;;3.10;;
73898;SDS011;62234;50.892;12.724;2023-07-22T01:32:42;8.57;;;3.55;;
73898;SDS011;62234;50.892;12.724;2023-07-22T01:35:08;11.52;;;3.67;;
73898;SDS011;62234;50.892;12.724;2023-07-22T01:37:34;13.32;;;3.00;;
73898;SDS011;62234;50.892;12.724;2023-07-22T01:40:00;10.07;;;3.67;;
73898;SDS011;62234;50.892;12.724;2023-07-22T01:42:36;6.93;;;2.83;;
73898;SDS011;62234;50.892;12.724;2023-07-22T01:45:02;4.43;;;3.05;;
73898;SDS011;62234;50.892;12.724;2023-07-22T01:47:28;11.63;;;3.72;;
73898;SDS011;62234;50.892;12.724;2023-07-22T01:49:54;10.05;;;3.22;;
73898;SDS011;62234;50.892;12.724;2023-07-22T01:52:20;12.30;;;3.70;;
73898;SDS011;62234;50.892;12.724;2023-07-22T01:54:46;12.80;;;3.20;;
73898;SDS011;62234;50.892;12.724;2023-07-22T01:57:12;9.35;;;3.28;;
73898;SDS011;62234;50.892;12.724;2023-07-22T01:59:38;12.90;;;3.10;;
73898;SDS011;62234;50.892;12.724;2023-07-22T02:02:05;6.57;;;2.90;;
73898;SDS011;62234;50.892;12.724;2023-07-22T02:04:31;10.43;;;3.22;;
73898;SDS011;62234;50.892;12.724;2023-07-22T02:06:56;10.55;;;3.20;;
73898;SDS011;62234;50.892;12.724;2023-07-22T02:09:22;9.73;;;3.25;;
73898;SDS011;62234;50.892;12.724;2023-07-22T02:11:48;10.77;;;3.28;;
73898;SDS011;62234;50.892;12.724;2023-07-22T02:14:14;6.72;;;3.50;;
73898;SDS011;62234;50.892;12.724;2023-07-22T02:16:40;7.22;;;3.30;;
73898;SDS011;62234;50.892;12.724;2023-07-22T02:19:06;10.75;;;3.67;;
73898;SDS011;62234;50.892;12.724;2023-07-22T02:21:32;13.70;;;3.72;;
73898;SDS011;62234;50.892;12.724;2023-07-22T02:23:58;8.77;;;3.80;;
73898;SDS011;62234;50.892;12.724;2023-07-22T02:26:24;14.60;;;3.85;;
73898;SDS011;62234;50.892;12.724;2023-07-22T02:28:50;9.60;;;3.60;;
73898;SDS011;62234;50.892;12.724;2023-07-22T02:31:16;12.82;;;4.05;;
73898;SDS011;62234;50.892;12.724;2023-07-22T02:33:42;17.23;;;4.15;;
73898;SDS011;62234;50.892;12.724;2023-07-22T02:36:08;13.73;;;4.43;;
73898;SDS011;62234;50.892;12.724;2023-07-22T02:38:34;6.63;;;3.08;;
73898;SDS011;62234;50.892;12.724;2023-07-22T02:41:06;7.70;;;4.45;;
73898;SDS011;62234;50.892;12.724;2023-07-22T02:43:33;8.55;;;3.80;;
73898;SDS011;62234;50.892;12.724;2023-07-22T02:46:00;12.27;;;3.53;;
73898;SDS011;62234;50.892;12.724;2023-07-22T02:48:26;13.68;;;3.63;;
73898;SDS011;62234;50.892;12.724;2023-07-22T02:50:52;4.95;;;3.30;;
73898;SDS011;62234;50.892;12.724;2023-07-22T02:53:18;7.43;;;3.20;;
73898;SDS011;62234;50.892;12.724;2023-07-22T02:55:44;6.97;;;3.45;;
73898;SDS011;62234;50.892;12.724;2023-07-22T02:58:11;7.15;;;3.75;;
73898;SDS011;62234;50.892;12.724;2023-07-22T03:00:37;11.20;;;3.22;;
73898;SDS011;62234;50.892;12.724;2023-07-22T03:03:03;8.80;;;3.17;;
73898;SDS011;62234;50.892;12.724;2023-07-22T03:05:30;13.50;;;3.88;;
73898;SDS011;62234;50.892;12.724;2023-07-22T03:07:57;13.13;;;3.80;;
73898;SDS011;62234;50.892;12.724;2023-07-22T03:10:23;16.13;;;4.25;;
73898;SDS011;62234;50.892;12.724;2023-07-22T03:12:50;10.48;;;3.40;;
73898;SDS011;62234;50.892;12.724;2023-07-22T03:15:20;10.25;;;3.60;;
73898;SDS011;62234;50.892;12.724;2023-07-22T03:17:46;10.35;;;3.45;;
73898;SDS011;62234;50.892;12.724;2023-07-22T03:20:12;11.93;;;3.40;;
73898;SDS011;62234;50.892;12.724;2023-07-22T03:22:44;7.97;;;3.47;;
73898;SDS011;62234;50.892;12.724;2023-07-22T03:25:11;5.57;;;3.20;;
73898;SDS011;62234;50.892;12.724;2023-07-22T03:27:37;9.68;;;3.45;;
73898;SDS011;62234;50.892;12.724;2023-07-22T03:30:04;15.40;;;3.50;;
73898;SDS011;62234;50.892;12.724;2023-07-22T03:32:32;8.05;;;3.45;;
73898;SDS011;62234;50.892;12.724;2023-07-22T03:34:58;8.45;;;3.30;;
73898;SDS011;62234;50.892;12.724;2023-07-22T03:37:24;6.90;;;2.92;;
73898;SDS011;62234;50.892;12.724;2023-07-22T03:39:50;8.60;;;3.30;;
73898;SDS011;62234;50.892;12.724;2023-07-22T03:42:16;17.75;;;4.97;;
73898;SDS011;62234;50.892;12.724;2023-07-22T03:44:42;8.98;;;3.28;;
73898;SDS011;62234;50.892;12.724;2023-07-22T03:47:08;7.88;;;3.25;;
73898;SDS011;62234;50.892;12.724;2023-07-22T03:49:34;6.25;;;3.35;;
73898;SDS011;62234;50.892;12.724;2023-07-22T03:51:59;9.88;;;3.55;;
73898;SDS011;62234;50.892;12.724;2023-07-22T03:54:25;9.10;;;3.45;;
73898;SDS011;62234;50.892;12.724;2023-07-22T03:56:51;7.90;;;3.35;;
73898;SDS011;62234;50.892;12.724;2023-07-22T03:59:17;6.47;;;3.00;;
73898;SDS011;62234;50.892;12.724;2023-07-22T04:01:43;6.35;;;3.88;;
73898;SDS011;62234;50.892;12.724;2023-07-22T04:04:09;11.90;;;3.83;;
73898;SDS011;62234;50.892;12.724;2023-07-22T04:06:35;6.38;;;3.20;;
73898;SDS011;62234;50.892;12.724;2023-07-22T04:09:01;8.60;;;3.40;;
73898;SDS011;62234;50.892;12.724;2023-07-22T04:11:27;8.32;;;3.08;;
73898;SDS011;62234;50.892;12.724;2023-07-22T04:13:53;7.80;;;3.28;;
73898;SDS011;62234;50.892;12.724;2023-07-22T04:16:19;7.78;;;3.38;;
73898;SDS011;62234;50.892;12.724;2023-07-22T04:18:45;7.47;;;3.47;;
73898;SDS011;62234;50.892;12.724;2023-07-22T04:21:11;9.85;;;3.88;;
73898;SDS011;62234;50.892;12.724;2023-07-22T04:23:37;5.63;;;3.47;;
73898;SDS011;62234;50.892;12.724;2023-07-22T04:26:03;5.80;;;3.30;;
73898;SDS011;62234;50.892;12.724;2023-07-22T04:28:35;7.38;;;3.33;;
73898;SDS011;62234;50.892;12.724;2023-07-22T04:31:01;7.38;;;3.63;;
73898;SDS011;62234;50.892;12.724;2023-07-22T04:33:27;7.43;;;3.28;;
73898;SDS011;62234;50.892;12.724;2023-07-22T04:35:55;8.18;;;3.83;;
73898;SDS011;62234;50.892;12.724;2023-07-22T04:38:21;5.35;;;3.50;;
73898;SDS011;62234;50.892;12.724;2023-07-22T04:40:47;9.70;;;3.85;;
73898;SDS011;62234;50.892;12.724;2023-07-22T04:43:13;8.27;;;3.40;;
73898;SDS011;62234;50.892;12.724;2023-07-22T04:45:39;9.10;;;3.70;;
73898;SDS011;62234;50.892;12.724;2023-07-22T04:48:05;10.90;;;3.80;;
73898;SDS011;62234;50.892;12.724;2023-07-22T04:50:31;4.60;;;3.45;;
73898;SDS011;62234;50.892;12.724;2023-07-22T04:52:57;6.68;;;3.53;;
73898;SDS011;62234;50.892;12.724;2023-07-22T04:55:23;5.57;;;3.35;;
73898;SDS011;62234;50.892;12.724;2023-07-22T04:57:49;7.93;;;3.22;;
73898;SDS011;62234;50.892;12.724;2023-07-22T05:00:16;8.77;;;3.10;;
73898;SDS011;62234;50.892;12.724;2023-07-22T05:02:44;8.65;;;4.03;;
73898;SDS011;62234;50.892;12.724;2023-07-22T05:05:11;13.18;;;3.50;;
73898;SDS011;62234;50.892;12.724;2023-07-22T05:07:36;7.03;;;3.83;;
73898;SDS011;62234;50.892;12.724;2023-07-22T05:10:03;6.53;;;3.55;;
73898;SDS011;62234;50.892;12.724;2023-07-22T05:12:29;7.95;;;4.47;;
73898;SDS011;62234;50.892;12.724;2023-07-22T05:14:54;7.25;;;3.50;;
73898;SDS011;62234;50.892;12.724;2023-07-22T05:17:20;15.57;;;4.50;;
73898;SDS011;62234;50.892;12.724;2023-07-22T05:19:46;6.57;;;3.83;;
73898;SDS011;62234;50.892;12.724;2023-07-22T05:22:14;5.72;;;3.88;;
73898;SDS011;62234;50.892;12.724;2023-07-22T05:24:39;8.05;;;3.78;;
73898;SDS011;62234;50.892;12.724;2023-07-22T05:27:05;6.20;;;4.00;;
73898;SDS011;62234;50.892;12.724;2023-07-22T05:29:31;8.60;;;3.67;;
73898;SDS011;62234;50.892;12.724;2023-07-22T05:31:57;5.25;;;3.80;;
73898;SDS011;62234;50.892;12.724;2023-07-22T05:34:23;4.65;;;3.33;;
73898;SDS011;62234;50.892;12.724;2023-07-22T05:36:49;6.78;;;4.10;;
73898;SDS011;62234;50.892;12.724;2023-07-22T05:39:15;6.95;;;3.60;;
73898;SDS011;62234;50.892;12.724;2023-07-22T05:41:42;7.53;;;3.88;;
73898;SDS011;62234;50.892;12.724;2023-07-22T05:44:08;5.45;;;3.70;;
73898;SDS011;62234;50.892;12.724;2023-07-22T05:46:34;7.18;;;4.05;;
73898;SDS011;62234;50.892;12.724;2023-07-22T05:49:00;6.43;;;3.92;;
73898;SDS011;62234;50.892;12.724;2023-07-22T05:51:26;4.95;;;3.92;;
73898;SDS011;62234;50.892;12.724;2023-07-22T05:53:52;4.25;;;3.70;;
73898;SDS011;62234;50.892;12.724;2023-07-22T05:56:18;5.75;;;3.65;;
73898;SDS011;62234;50.892;12.724;2023-07-22T05:58:44;5.63;;;3.85;;
73898;SDS011;62234;50.892;12.724;2023-07-22T06:01:10;6.93;;;3.92;;
73898;SDS011;62234;50.892;12.724;2023-07-22T06:03:37;5.32;;;4.18;;
73898;SDS011;62234;50.892;12.724;2023-07-22T06:06:03;7.35;;;3.92;;
73898;SDS011;62234;50.892;12.724;2023-07-22T06:08:29;8.50;;;4.75;;
73898;SDS011;62234;50.892;12.724;2023-07-22T06:10:56;6.53;;;3.80;;
73898;SDS011;62234;50.892;12.724;2023-07-22T06:13:22;7.38;;;4.00;;
73898;SDS011;62234;50.892;12.724;2023-07-22T06:15:47;6.90;;;4.50;;
73898;SDS011;62234;50.892;12.724;2023-07-22T06:18:13;8.18;;;4.57;;
73898;SDS011;62234;50.892;12.724;2023-07-22T06:20:39;6.72;;;4.18;;
73898;SDS011;62234;50.892;12.724;2023-07-22T06:23:05;5.10;;;3.97;;
73898;SDS011;62234;50.892;12.724;2023-07-22T06:25:31;8.43;;;3.97;;
73898;SDS011;62234;50.892;12.724;2023-07-22T06:27:57;8.63;;;4.05;;
73898;SDS011;62234;50.892;12.724;2023-07-22T06:30:23;9.68;;;3.90;;
73898;SDS011;62234;50.892;12.724;2023-07-22T06:32:49;7.70;;;4.10;;
73898;SDS011;62234;50.892;12.724;2023-07-22T06:35:15;10.32;;;4.60;;
73898;SDS011;62234;50.892;12.724;2023-07-22T06:37:41;11.80;;;4.30;;
73898;SDS011;62234;50.892;12.724;2023-07-22T06:40:08;7.70;;;4.10;;
73898;SDS011;62234;50.892;12.724;2023-07-22T06:42:34;8.88;;;4.32;;
73898;SDS011;62234;50.892;12.724;2023-07-22T06:45:00;7.05;;;3.95;;
73898;SDS011;62234;50.892;12.724;2023-07-22T06:47:26;6.35;;;4.03;;
73898;SDS011;62234;50.892;12.724;2023-07-22T06:49:52;6.05;;;4.40;;
73898;SDS011;62234;50.892;12.724;2023-07-22T06:52:18;9.10;;;4.35;;
73898;SDS011;62234;50.892;12.724;2023-07-22T06:54:44;5.88;;;3.83;;
73898;SDS011;62234;50.892;12.724;2023-07-22T06:57:09;7.90;;;3.95;;
73898;SDS011;62234;50.892;12.724;2023-07-22T06:59:35;7.45;;;4.03;;
73898;SDS011;62234;50.892;12.724;2023-07-22T07:02:02;9.23;;;4.07;;
73898;SDS011;62234;50.892;12.724;2023-07-22T07:04:28;6.75;;;3.78;;
73898;SDS011;62234;50.892;12.724;2023-07-22T07:06:54;5.45;;;3.55;;
73898;SDS011;62234;50.892;12.724;2023-07-22T07:09:20;7.72;;;4.60;;
73898;SDS011;62234;50.892;12.724;2023-07-22T07:11:46;6.53;;;4.00;;
73898;SDS011;62234;50.892;12.724;2023-07-22T07:14:12;8.20;;;4.32;;
73898;SDS011;62234;50.892;12.724;2023-07-22T07:16:38;4.55;;;3.50;;
73898;SDS011;62234;50.892;12.724;2023-07-22T07:19:04;5.47;;;3.55;;
73898;SDS011;62234;50.892;12.724;2023-07-22T07:21:30;7.75;;;3.53;;
73898;SDS011;62234;50.892;12.724;2023-07-22T07:23:55;5.93;;;3.58;;
73898;SDS011;62234;50.892;12.724;2023-07-22T07:26:22;3.92;;;3.42;;
73898;SDS011;62234;50.892;12.724;2023-07-22T07:28:48;5.72;;;4.00;;
73898;SDS011;62234;50.892;12.724;2023-07-22T07:31:15;5.82;;;4.00;;
73898;SDS011;62234;50.892;12.724;2023-07-22T07:33:41;4.88;;;4.20;;
73898;SDS011;62234;50.892;12.724;2023-07-22T07:36:07;7.40;;;4.60;;
73898;SDS011;62234;50.892;12.724;2023-07-22T07:38:33;5.30;;;3.92;;
73898;SDS011;62234;50.892;12.724;2023-07-22T07:41:00;5.93;;;3.83;;
73898;SDS011;62234;50.892;12.724;2023-07-22T07:43:26;6.97;;;3.83;;
73898;SDS011;62234;50.892;12.724;2023-07-22T07:48:37;7.68;;;4.28;;
73898;SDS011;62234;50.892;12.724;2023-07-22T07:51:03;4.32;;;3.72;;
73898;SDS011;62234;50.892;12.724;2023-07-22T07:53:29;4.70;;;3.40;;
73898;SDS011;62234;50.892;12.724;2023-07-22T07:55:55;5.15;;;3.80;;
73898;SDS011;62234;50.892;12.724;2023-07-22T07:58:20;5.47;;;3.60;;
73898;SDS011;62234;50.892;12.724;2023-07-22T08:00:46;6.75;;;3.75;;
73898;SDS011;62234;50.892;12.724;2023-07-22T08:03:12;8.50;;;4.38;;
73898;SDS011;62234;50.892;12.724;2023-07-22T08:05:39;8.43;;;3.50;;
73898;SDS011;62234;50.892;12.724;2023-07-22T08:08:05;7.03;;;3.40;;
73898;SDS011;62234;50.892;12.724;2023-07-22T08:10:31;5.55;;;3.97;;
73898;SDS011;62234;50.892;12.724;2023-07-22T08:12:57;5.15;;;4.22;;
73898;SDS011;62234;50.892;12.724;2023-07-22T08:15:24;4.60;;;2.60;;
73898;SDS011;62234;50.892;12.724;2023-07-22T08:17:50;4.13;;;2.90;;
73898;SDS011;62234;50.892;12.724;2023-07-22T08:20:16;5.72;;;3.42;;
73898;SDS011;62234;50.892;12.724;2023-07-22T08:22:42;5.50;;;2.72;;
73898;SDS011;62234;50.892;12.724;2023-07-22T08:25:34;5.20;;;3.60;;
73898;SDS011;62234;50.892;12.724;2023-07-22T08:28:00;5.53;;;3.38;;
73898;SDS011;62234;50.892;12.724;2023-07-22T08:30:26;7.38;;;3.38;;
73898;SDS011;62234;50.892;12.724;2023-07-22T08:32:51;4.93;;;3.08;;
73898;SDS011;62234;50.892;12.724;2023-07-22T08:35:17;4.97;;;3.25;;
73898;SDS011;62234;50.892;12.724;2023-07-22T08:37:43;4.07;;;2.90;;
73898;SDS011;62234;50.892;12.724;2023-07-22T08:40:12;3.63;;;3.05;;
73898;SDS011;62234;50.892;12.724;2023-07-22T08:42:37;3.67;;;2.67;;
73898;SDS011;62234;50.892;12.724;2023-07-22T08:45:04;3.33;;;2.38;;
73898;SDS011;62234;50.892;12.724;2023-07-22T08:47:31;3.05;;;2.33;;
73898;SDS011;62234;50.892;12.724;2023-07-22T08:49:58;6.32;;;2.83;;
73898;SDS011;62234;50.892;12.724;2023-07-22T08:52:26;3.72;;;2.97;;
73898;SDS011;62234;50.892;12.724;2023-07-22T08:54:52;5.28;;;2.97;;
73898;SDS011;62234;50.892;12.724;2023-07-22T08:57:18;7.20;;;3.97;;
73898;SDS011;62234;50.892;12.724;2023-07-22T08:59:45;3.85;;;3.05;;
73898;SDS011;62234;50.892;12.724;2023-07-22T09:02:12;4.05;;;2.78;;
73898;SDS011;62234;50.892;12.724;2023-07-22T09:04:38;3.08;;;2.78;;
73898;SDS011;62234;50.892;12.724;2023-07-22T09:07:07;3.95;;;2.88;;
73898;SDS011;62234;50.892;12.724;2023-07-22T09:09:34;2.80;;;2.30;;
73898;SDS011;62234;50.892;12.724;2023-07-22T09:12:00;2.45;;;2.25;;
73898;SDS011;62234;50.892;12.724;2023-07-22T09:14:26;3.45;;;2.53;;
73898;SDS011;62234;50.892;12.724;2023-07-22T09:16:53;2.53;;;2.13;;
73898;SDS011;62234;50.892;12.724;2023-07-22T09:19:19;2.30;;;1.75;;
73898;SDS011;62234;50.892;12.724;2023-07-22T09:21:45;3.70;;;1.85;;
73898;SDS011;62234;50.892;12.724;2023-07-22T09:24:21;2.35;;;1.60;;
73898;SDS011;62234;50.892;12.724;2023-07-22T09:26:47;1.50;;;1.40;;
73898;SDS011;62234;50.892;12.724;2023-07-22T09:29:13;2.35;;;1.60;;
73898;SDS011;62234;50.892;12.724;2023-07-22T09:31:54;1.70;;;1.58;;
73898;SDS011;62234;50.892;12.724;2023-07-22T09:34:19;2.25;;;1.55;;
73898;SDS011;62234;50.892;12.724;2023-07-22T09:36:54;2.38;;;1.92;;
73898;SDS011;62234;50.892;12.724;2023-07-22T09:39:21;2.80;;;1.85;;
73898;SDS011;62234;50.892;12.724;2023-07-22T09:41:47;2.03;;;1.67;;
73898;SDS011;62234;50.892;12.724;2023-07-22T09:44:13;1.88;;;1.48;;
73898;SDS011;62234;50.892;12.724;2023-07-22T09:46:40;2.17;;;1.50;;
73898;SDS011;62234;50.892;12.724;2023-07-22T09:49:07;2.10;;;1.50;;
73898;SDS011;62234;50.892;12.724;2023-07-22T09:51:37;1.92;;;1.33;;
73898;SDS011;62234;50.892;12.724;2023-07-22T09:54:03;3.58;;;1.80;;
73898;SDS011;62234;50.892;12.724;2023-07-22T09:56:29;2.40;;;1.80;;
73898;SDS011;62234;50.892;12.724;2023-07-22T09:58:59;1.95;;;1.40;;
73898;SDS011;62234;50.892;12.724;2023-07-22T10:01:25;1.30;;;1.20;;
73898;SDS011;62234;50.892;12.724;2023-07-22T10:03:53;1.70;;;1.55;;
73898;SDS011;62234;50.892;12.724;2023-07-22T10:06:28;2.53;;;1.85;;
73898;SDS011;62234;50.892;12.724;2023-07-22T10:08:59;1.88;;;1.42;;
73898;SDS011;62234;50.892;12.724;2023-07-22T10:11:27;1.80;;;1.70;;
73898;SDS011;62234;50.892;12.724;2023-07-22T10:13:53;1.50;;;1.40;;
73898;SDS011;62234;50.892;12.724;2023-07-22T10:16:20;2.25;;;1.35;;
73898;SDS011;62234;50.892;12.724;2023-07-22T10:18:48;3.47;;;1.50;;
73898;SDS011;62234;50.892;12.724;2023-07-22T10:21:14;1.75;;;1.40;;
73898;SDS011;62234;50.892;12.724;2023-07-22T10:23:40;1.98;;;1.60;;
73898;SDS011;62234;50.892;12.724;2023-07-22T10:26:06;1.85;;;1.58;;
73898;SDS011;62234;50.892;12.724;2023-07-22T10:28:32;2.15;;;1.42;;
73898;SDS011;62234;50.892;12.724;2023-07-22T10:30:59;3.33;;;1.70;;
73898;SDS011;62234;50.892;12.724;2023-07-22T10:33:25;4.03;;;1.92;;
73898;SDS011;62234;50.892;12.724;2023-07-22T10:36:01;2.42;;;1.85;;
73898;SDS011;62234;50.892;12.724;2023-07-22T10:38:27;2.20;;;1.70;;
73898;SDS011;62234;50.892;12.724;2023-07-22T10:40:54;2.40;;;1.92;;
73898;SDS011;62234;50.892;12.724;2023-07-22T10:43:24;2.08;;;1.55;;
73898;SDS011;62234;50.892;12.724;2023-07-22T10:45:55;2.38;;;2.22;;
73898;SDS011;62234;50.892;12.724;2023-07-22T10:48:27;1.90;;;1.63;;
73898;SDS011;62234;50.892;12.724;2023-07-22T10:51:04;3.83;;;1.60;;
73898;SDS011;62234;50.892;12.724;2023-07-22T10:53:30;2.17;;;1.58;;
73898;SDS011;62234;50.892;12.724;2023-07-22T10:56:07;2.00;;;1.80;;
73898;SDS011;62234;50.892;12.724;2023-07-22T10:58:33;1.80;;;1.70;;
73898;SDS011;62234;50.892;12.724;2023-07-22T11:01:22;2.03;;;1.70;;
73898;SDS011;62234;50.892;12.724;2023-07-22T11:04:11;1.52;;;1.42;;
73898;SDS011;62234;50.892;12.724;2023-07-22T11:09:32;3.65;;;1.88;;
73898;SDS011;62234;50.892;12.724;2023-07-22T11:17:06;2.38;;;2.17;;
73898;SDS011;62234;50.892;12.724;2023-07-22T11:19:36;3.83;;;1.90;;
73898;SDS011;62234;50.892;12.724;2023-07-22T11:22:02;1.60;;;1.50;;
73898;SDS011;62234;50.892;12.724;2023-07-22T11:24:28;3.10;;;2.20;;
73898;SDS011;62234;50.892;12.724;2023-07-22T11:26:54;1.92;;;1.70;;
73898;SDS011;62234;50.892;12.724;2023-07-22T11:29:21;2.28;;;1.70;;
73898;SDS011;62234;50.892;12.724;2023-07-22T11:31:47;2.17;;;1.67;;
73898;SDS011;62234;50.892;12.724;2023-07-22T11:36:40;3.03;;;2.20;;
73898;SDS011;62234;50.892;12.724;2023-07-22T11:39:09;1.77;;;1.67;;
73898;SDS011;62234;50.892;12.724;2023-07-22T11:41:37;4.00;;;2.30;;
73898;SDS011;62234;50.892;12.724;2023-07-22T11:44:04;2.45;;;1.77;;
73898;SDS011;62234;50.892;12.724;2023-07-22T11:46:34;2.60;;;1.90;;
73898;SDS011;62234;50.892;12.724;2023-07-22T11:49:00;1.83;;;1.65;;
73898;SDS011;62234;50.892;12.724;2023-07-22T11:51:26;2.30;;;1.80;;
73898;SDS011;62234;50.892;12.724;2023-07-22T11:53:53;2.00;;;1.90;;
73898;SDS011;62234;50.892;12.724;2023-07-22T11:56:23;3.13;;;2.15;;
73898;SDS011;62234;50.892;12.724;2023-07-22T11:58:52;2.75;;;1.90;;
73898;SDS011;62234;50.892;12.724;2023-07-22T12:01:19;2.30;;;1.92;;
73898;SDS011;62234;50.892;12.724;2023-07-22T12:03:45;2.00;;;1.83;;
73898;SDS011;62234;50.892;12.724;2023-07-22T12:06:11;4.13;;;2.13;;
73898;SDS011;62234;50.892;12.724;2023-07-22T12:08:42;5.38;;;1.83;;
73898;SDS011;62234;50.892;12.724;2023-07-22T12:11:15;2.38;;;1.75;;
73898;SDS011;62234;50.892;12.724;2023-07-22T12:13:41;2.40;;;1.80;;
73898;SDS011;62234;50.892;12.724;2023-07-22T12:16:09;3.00;;;1.90;;
73898;SDS011;62234;50.892;12.724;2023-07-22T12:18:42;2.40;;;2.15;;
73898;SDS011;62234;50.892;12.724;2023-07-22T12:21:08;2.08;;;1.90;;
73898;SDS011;62234;50.892;12.724;2023-07-22T12:23:35;3.97;;;2.33;;
73898;SDS011;62234;50.892;12.724;2023-07-22T12:26:01;3.03;;;2.15;;
73898;SDS011;62234;50.892;12.724;2023-07-22T12:28:27;3.22;;;1.75;;
73898;SDS011;62234;50.892;12.724;2023-07-22T12:30:53;3.90;;;1.70;;
73898;SDS011;62234;50.892;12.724;2023-07-22T12:33:22;2.63;;;1.98;;
73898;SDS011;62234;50.892;12.724;2023-07-22T12:35:49;3.45;;;1.77;;
73898;SDS011;62234;50.892;12.724;2023-07-22T12:38:15;2.40;;;1.98;;
73898;SDS011;62234;50.892;12.724;2023-07-22T12:40:40;3.22;;;2.05;;
73898;SDS011;62234;50.892;12.724;2023-07-22T12:43:06;3.70;;;2.10;;
73898;SDS011;62234;50.892;12.724;2023-07-22T12:45:33;4.55;;;2.10;;
73898;SDS011;62234;50.892;12.724;2023-07-22T12:47:59;1.83;;;1.73;;
73898;SDS011;62234;50.892;12.724;2023-07-22T12:50:25;2.42;;;1.90;;
73898;SDS011;62234;50.892;12.724;2023-07-22T12:52:51;2.15;;;1.95;;
73898;SDS011;62234;50.892;12.724;2023-07-22T12:55:16;2.75;;;1.83;;
73898;SDS011;62234;50.892;12.724;2023-07-22T12:57:42;3.40;;;1.83;;
73898;SDS011;62234;50.892;12.724;2023-07-22T13:00:08;2.53;;;2.10;;
73898;SDS011;62234;50.892;12.724;2023-07-22T13:02:36;2.75;;;2.10;;
73898;SDS011;62234;50.892;12.724;2023-07-22T13:05:02;1.73;;;1.63;;
73898;SDS011;62234;50.892;12.724;2023-07-22T13:07:29;2.20;;;2.00;;
73898;SDS011;62234;50.892;12.724;2023-07-22T13:09:55;2.38;;;1.70;;
73898;SDS011;62234;50.892;12.724;2023-07-22T13:12:21;2.15;;;1.95;;
73898;SDS011;62234;50.892;12.724;2023-07-22T13:14:47;2.25;;;2.05;;
73898;SDS011;62234;50.892;12.724;2023-07-22T13:17:13;2.30;;;2.10;;
73898;SDS011;62234;50.892;12.724;2023-07-22T13:19:39;2.20;;;1.75;;
73898;SDS011;62234;50.892;12.724;2023-07-22T13:22:05;3.20;;;2.20;;
73898;SDS011;62234;50.892;12.724;2023-07-22T13:24:31;2.15;;;1.95;;
73898;SDS011;62234;50.892;12.724;2023-07-22T13:26:57;2.28;;;2.05;;
73898;SDS011;62234;50.892;12.724;2023-07-22T13:29:23;3.22;;;1.92;;
73898;SDS011;62234;50.892;12.724;2023-07-22T13:31:49;3.13;;;1.92;;
73898;SDS011;62234;50.892;12.724;2023-07-22T13:34:15;3.83;;;2.00;;
73898;SDS011;62234;50.892;12.724;2023-07-22T13:36:41;2.00;;;1.80;;
73898;SDS011;62234;50.892;12.724;2023-07-22T13:39:07;3.38;;;2.30;;
73898;SDS011;62234;50.892;12.724;2023-07-22T13:41:33;3.75;;;1.70;;
73898;SDS011;62234;50.892;12.724;2023-07-22T13:43:58;1.88;;;1.77;;
73898;SDS011;62234;50.892;12.724;2023-07-22T13:46:25;1.80;;;1.65;;
73898;SDS011;62234;50.892;12.724;2023-07-22T13:48:50;2.03;;;1.83;;
73898;SDS011;62234;50.892;12.724;2023-07-22T13:51:16;3.10;;;1.80;;
73898;SDS011;62234;50.892;12.724;2023-07-22T13:53:42;2.72;;;1.60;;
73898;SDS011;62234;50.892;12.724;2023-07-22T13:56:08;3.13;;;1.80;;
73898;SDS011;62234;50.892;12.724;2023-07-22T13:58:34;2.08;;;1.75;;
73898;SDS011;62234;50.892;12.724;2023-07-22T14:01:00;2.60;;;1.73;;
73898;SDS011;62234;50.892;12.724;2023-07-22T14:03:26;1.52;;;1.42;;
73898;SDS011;62234;50.892;12.724;2023-07-22T14:05:52;2.20;;;2.00;;
73898;SDS011;62234;50.892;12.724;2023-07-22T14:08:18;1.60;;;1.50;;
73898;SDS011;62234;50.892;12.724;2023-07-22T14:10:44;2.03;;;1.83;;
73898;SDS011;62234;50.892;12.724;2023-07-22T14:13:10;2.10;;;1.90;;
73898;SDS011;62234;50.892;12.724;2023-07-22T14:15:36;4.47;;;2.03;;
73898;SDS011;62234;50.892;12.724;2023-07-22T14:18:02;3.28;;;1.50;;
73898;SDS011;62234;50.892;12.724;2023-07-22T14:20:28;1.75;;;1.55;;
73898;SDS011;62234;50.892;12.724;2023-07-22T14:22:55;5.20;;;1.90;;
73898;SDS011;62234;50.892;12.724;2023-07-22T14:25:21;2.22;;;1.88;;
73898;SDS011;62234;50.892;12.724;2023-07-22T14:27:47;2.50;;;2.05;;
73898;SDS011;62234;50.892;12.724;2023-07-22T14:30:13;2.63;;;2.30;;
73898;SDS011;62234;50.892;12.724;2023-07-22T14:32:39;3.70;;;2.25;;
73898;SDS011;62234;50.892;12.724;2023-07-22T14:35:05;1.75;;;1.60;;
73898;SDS011;62234;50.892;12.724;2023-07-22T14:37:31;2.50;;;1.60;;
73898;SDS011;62234;50.892;12.724;2023-07-22T14:39:57;2.95;;;1.70;;
73898;SDS011;62234;50.892;12.724;2023-07-22T14:42:23;2.25;;;2.05;;
73898;SDS011;62234;50.892;12.724;2023-07-22T14:44:49;2.88;;;1.98;;